createdAt,value
2019-04-20T00:00:59.877Z,14.20
2019-04-20T00:03:35.606Z,14.30
2019-04-20T00:05:59.370Z,14.30
2019-04-20T00:08:31.055Z,14.20
2019-04-20T00:11:05.779Z,14.10
2019-04-20T00:13:35.594Z,14.10
2019-04-20T00:15:56.166Z,14.00
2019-04-20T00:18:26.800Z,13.90
2019-04-20T00:21:03.988Z,13.90
2019-04-20T00:23:48.628Z,13.90
2019-04-20T00:27:19.609Z,13.90
2019-04-20T00:29:36.640Z,13.90
2019-04-20T00:31:58.384Z,13.80
2019-04-20T00:34:23.000Z,13.70
2019-04-20T00:36:45.781Z,13.70
2019-04-20T00:39:15.473Z,13.80
2019-04-20T00:41:49.888Z,13.70
2019-04-20T00:44:22.555Z,13.70
2019-04-20T00:47:00.977Z,13.60
2019-04-20T00:49:31.860Z,13.50
2019-04-20T00:52:12.492Z,13.50
2019-04-20T00:54:16.017Z,13.40
2019-04-20T00:56:45.347Z,13.30
2019-04-20T00:59:25.951Z,13.20
2019-04-20T01:01:58.354Z,13.20
2019-04-20T01:04:29.475Z,13.20
2019-04-20T01:07:01.589Z,13.20
2019-04-20T01:09:24.582Z,13.30
2019-04-20T01:11:54.468Z,13.20
2019-04-20T01:14:27.320Z,13.10
2019-04-20T01:16:59.730Z,13.10
2019-04-20T01:19:21.535Z,12.90
2019-04-20T01:21:58.143Z,12.80
2019-04-20T01:24:24.916Z,12.90
2019-04-20T01:26:53.694Z,12.80
2019-04-20T01:29:29.453Z,12.80
2019-04-20T01:32:01.114Z,12.80
2019-04-20T01:34:31.205Z,12.80
2019-04-20T01:37:04.497Z,12.70
2019-04-20T01:39:26.043Z,12.70
2019-04-20T01:41:47.550Z,12.60
2019-04-20T01:44:18.952Z,12.60
2019-04-20T01:46:50.477Z,12.60
2019-04-20T01:49:20.511Z,12.60
2019-04-20T01:51:52.461Z,12.50
2019-04-20T01:54:34.068Z,12.50
2019-04-20T01:56:59.238Z,12.50
2019-04-20T01:59:40.056Z,12.50
2019-04-20T02:02:22.452Z,12.30
2019-04-20T02:05:04.502Z,12.20
2019-04-20T02:07:35.102Z,12.20
2019-04-20T02:09:59.890Z,12.20
2019-04-20T02:12:29.253Z,12.20
2019-04-20T02:14:59.440Z,12.20
2019-04-20T02:17:31.905Z,12.10
2019-04-20T02:20:12.628Z,12.00
2019-04-20T02:22:44.673Z,12.00
2019-04-20T02:24:53.067Z,12.00
2019-04-20T02:27:29.962Z,12.10
2019-04-20T02:30:21.814Z,12.10
2019-04-20T02:32:55.908Z,12.10
2019-04-20T02:36:11.139Z,12.10
2019-04-20T02:39:00.181Z,12.10
2019-04-20T02:41:11.451Z,12.00
2019-04-20T02:44:04.473Z,12.00
2019-04-20T02:46:08.878Z,11.90
2019-04-20T02:48:41.838Z,11.80
2019-04-20T02:51:08.911Z,11.70
2019-04-20T02:53:51.792Z,11.60
2019-04-20T02:56:19.307Z,11.50
2019-04-20T02:58:45.523Z,11.60
2019-04-20T03:01:20.785Z,11.70
2019-04-20T03:03:36.497Z,11.70
2019-04-20T03:06:14.801Z,11.80
2019-04-20T03:08:51.643Z,11.80
2019-04-20T03:11:21.164Z,11.80
2019-04-20T03:13:50.643Z,11.80
2019-04-20T03:16:16.743Z,11.60
2019-04-20T03:18:44.634Z,11.60
2019-04-20T03:21:28.939Z,11.50
2019-04-20T03:24:02.198Z,11.40
2019-04-20T03:26:33.963Z,11.30
2019-04-20T03:29:18.892Z,11.30
2019-04-20T03:32:33.042Z,11.30
2019-04-20T03:34:56.665Z,11.30
2019-04-20T03:37:07.122Z,11.20
2019-04-20T03:39:30.227Z,11.20
2019-04-20T03:41:44.430Z,11.10
2019-04-20T03:44:14.126Z,11.00
2019-04-20T03:46:45.598Z,11.10
2019-04-20T03:49:36.949Z,11.00
2019-04-20T03:52:02.644Z,11.00
2019-04-20T03:54:34.649Z,11.00
2019-04-20T03:57:38.186Z,11.00
2019-04-20T04:00:24.894Z,11.00
2019-04-20T04:03:16.549Z,10.80
2019-04-20T04:05:44.328Z,10.70
2019-04-20T04:08:12.251Z,10.60
2019-04-20T04:10:51.537Z,10.70
2019-04-20T04:13:09.799Z,10.70
2019-04-20T04:15:45.111Z,10.70
2019-04-20T04:18:19.748Z,10.50
2019-04-20T04:20:51.302Z,10.50
2019-04-20T04:23:32.728Z,10.50
2019-04-20T04:26:02.187Z,10.60
2019-04-20T04:28:28.626Z,10.60
2019-04-20T04:31:04.148Z,10.60
2019-04-20T04:35:56.844Z,10.40
2019-04-20T04:38:35.917Z,10.30
2019-04-20T04:41:09.566Z,10.40
2019-04-20T04:43:31.599Z,10.40
2019-04-20T04:45:41.089Z,10.40
2019-04-20T04:48:14.798Z,10.40
2019-04-20T04:50:47.435Z,10.40
2019-04-20T04:53:17.147Z,10.30
2019-04-20T04:55:50.099Z,10.20
2019-04-20T04:58:08.539Z,10.20
2019-04-20T05:00:37.516Z,10.20
2019-04-20T05:03:31.071Z,10.10
2019-04-20T05:06:01.796Z,10.20
2019-04-20T05:08:22.016Z,10.20
2019-04-20T05:10:43.875Z,10.20
2019-04-20T05:13:11.635Z,10.10
2019-04-20T05:15:57.349Z,10.20
2019-04-20T05:18:34.779Z,10.10
2019-04-20T05:20:58.785Z,10.10
2019-04-20T05:23:47.894Z,10.30
2019-04-20T05:26:39.856Z,10.40
2019-04-20T05:29:02.794Z,10.30
2019-04-20T05:31:24.475Z,10.30
2019-04-20T05:34:14.483Z,10.30
2019-04-20T05:36:41.269Z,10.30
2019-04-20T05:39:24.277Z,10.30
2019-04-20T05:41:40.338Z,10.30
2019-04-20T05:44:26.018Z,10.50
2019-04-20T05:47:02.847Z,10.50
2019-04-20T05:49:29.766Z,10.60
2019-04-20T05:52:02.926Z,10.70
2019-04-20T05:54:32.530Z,10.90
2019-04-20T05:57:07.847Z,11.00
2019-04-20T05:59:26.128Z,11.00
2019-04-20T06:02:03.628Z,11.10
2019-04-20T06:04:38.832Z,11.10
2019-04-20T06:07:06.028Z,11.20
2019-04-20T06:09:46.403Z,11.30
2019-04-20T06:12:17.378Z,11.40
2019-04-20T06:14:44.262Z,11.50
2019-04-20T06:17:21.172Z,11.60
2019-04-20T06:19:52.696Z,11.70
2019-04-20T06:22:31.396Z,11.80
2019-04-20T06:25:24.116Z,11.80
2019-04-20T06:27:40.862Z,11.80
2019-04-20T06:30:05.901Z,11.90
2019-04-20T06:33:24.509Z,11.90
2019-04-20T06:36:07.562Z,11.90
2019-04-20T06:38:35.328Z,12.20
2019-04-20T06:40:53.952Z,12.30
2019-04-20T06:43:11.332Z,12.40
2019-04-20T06:45:54.561Z,12.60
2019-04-20T06:48:22.101Z,12.70
2019-04-20T06:50:44.768Z,12.80
2019-04-20T06:53:31.869Z,12.90
2019-04-20T06:56:10.055Z,12.80
2019-04-20T06:58:45.540Z,12.80
2019-04-20T07:01:11.078Z,12.90
2019-04-20T07:03:59.181Z,13.00
2019-04-20T07:06:24.968Z,13.20
2019-04-20T07:08:48.855Z,13.30
2019-04-20T07:11:10.958Z,13.50
2019-04-20T07:13:27.145Z,13.70
2019-04-20T07:16:13.694Z,13.80
2019-04-20T07:19:00.820Z,13.90
2019-04-20T07:22:23.406Z,14.00
2019-04-20T07:24:47.878Z,14.00
2019-04-20T07:27:16.183Z,14.10
2019-04-20T07:29:46.337Z,14.20
2019-04-20T07:32:11.700Z,14.40
2019-04-20T07:34:47.570Z,14.50
2019-04-20T07:39:53.854Z,14.60
2019-04-20T07:42:29.405Z,14.80
2019-04-20T07:44:57.997Z,14.90
2019-04-20T07:47:33.047Z,15.00
2019-04-20T07:49:53.835Z,15.00
2019-04-20T07:52:06.518Z,15.10
2019-04-20T07:55:14.443Z,15.20
2019-04-20T07:57:31.032Z,15.20
2019-04-20T08:00:07.619Z,15.30
2019-04-20T08:02:57.362Z,15.30
2019-04-20T08:05:36.457Z,15.50
2019-04-20T08:08:16.808Z,15.60
2019-04-20T08:10:44.918Z,15.70
2019-04-20T08:15:49.491Z,15.90
2019-04-20T08:18:21.388Z,16.00
2019-04-20T08:20:52.621Z,16.10
2019-04-20T08:23:17.062Z,16.20
2019-04-20T08:25:44.483Z,16.30
2019-04-20T08:33:09.537Z,16.60
2019-04-20T08:35:48.166Z,16.80
2019-04-20T08:38:47.204Z,17.00
2019-04-20T08:40:43.910Z,17.20
2019-04-20T08:43:29.907Z,17.20
2019-04-20T08:45:49.461Z,17.30
2019-04-20T08:48:18.031Z,17.30
2019-04-20T08:50:45.004Z,17.50
2019-04-20T08:53:20.508Z,17.70
2019-04-20T08:55:37.717Z,17.90
2019-04-20T08:57:52.044Z,18.20
2019-04-20T09:00:28.884Z,18.30
2019-04-20T09:02:57.872Z,18.40
2019-04-20T09:05:33.276Z,18.60
2019-04-20T09:08:02.570Z,18.90
2019-04-20T09:10:42.405Z,19.10
2019-04-20T09:13:02.352Z,19.10
2019-04-20T09:15:21.014Z,19.30
2019-04-20T09:18:09.094Z,19.40
2019-04-20T09:20:45.886Z,19.60
2019-04-20T09:23:25.137Z,19.70
2019-04-20T09:26:02.335Z,20.00
2019-04-20T09:28:23.849Z,20.20
2019-04-20T09:30:53.192Z,20.50
2019-04-20T09:33:58.747Z,20.60
2019-04-20T09:36:32.556Z,20.80
2019-04-20T09:39:27.111Z,21.00
2019-04-20T09:42:01.163Z,21.30
2019-04-20T09:44:35.474Z,21.40
2019-04-20T09:47:01.997Z,21.70
2019-04-20T09:49:42.472Z,21.90
2019-04-20T09:52:13.329Z,21.90
2019-04-20T09:54:45.338Z,21.90
2019-04-20T09:57:19.129Z,22.00
2019-04-20T09:59:44.844Z,22.00
2019-04-20T10:02:06.605Z,21.90
2019-04-20T10:04:27.578Z,21.90
2019-04-20T10:06:55.366Z,21.70
2019-04-20T10:09:30.584Z,21.60
2019-04-20T10:11:53.228Z,21.70
2019-04-20T10:14:22.515Z,21.70
2019-04-20T10:16:51.717Z,21.80
2019-04-20T10:19:25.163Z,21.60
2019-04-20T10:21:50.647Z,21.60
2019-04-20T10:24:18.909Z,21.60
2019-04-20T10:29:15.467Z,21.80
2019-04-20T10:31:51.371Z,22.00
2019-04-20T10:34:13.586Z,22.00
2019-04-20T10:37:01.687Z,22.10
2019-04-20T10:39:31.873Z,22.10
2019-04-20T10:42:04.205Z,22.10
2019-04-20T10:44:32.526Z,22.30
2019-04-20T10:47:00.841Z,22.40
2019-04-20T10:49:29.123Z,22.70
2019-04-20T10:54:26.674Z,23.10
2019-04-20T10:56:55.460Z,23.20
2019-04-20T10:59:23.540Z,23.40
2019-04-20T11:01:51.800Z,23.50
2019-04-20T11:04:20.906Z,23.60
2019-04-20T11:06:50.085Z,23.60
2019-04-20T11:09:18.493Z,23.50
2019-04-20T11:11:46.564Z,23.80
2019-04-20T11:14:24.177Z,24.00
2019-04-20T11:16:44.502Z,24.10
2019-04-20T11:19:13.537Z,24.20
2019-04-20T11:21:41.500Z,24.40
2019-04-20T11:24:10.039Z,24.50
2019-04-20T11:26:39.708Z,24.40
2019-04-20T11:29:08.384Z,24.60
2019-04-20T11:31:41.573Z,24.70
2019-04-20T11:34:06.069Z,24.90
2019-04-20T11:36:34.988Z,25.10
2019-04-20T11:39:05.385Z,25.20
2019-04-20T11:41:35.674Z,25.40
2019-04-20T11:44:03.390Z,25.50
2019-04-20T11:46:32.360Z,25.60
2019-04-20T11:49:01.410Z,25.70
2019-04-20T11:51:29.845Z,25.60
2019-04-20T11:53:58.540Z,25.70
2019-04-20T11:56:32.927Z,25.90
2019-04-20T11:58:56.779Z,26.00
2019-04-20T12:01:47.677Z,26.00
2019-04-20T12:04:25.228Z,26.10
2019-04-20T12:06:43.348Z,26.20
2019-04-20T12:09:12.860Z,26.30
2019-04-20T12:11:56.238Z,26.40
2019-04-20T12:14:10.559Z,26.60
2019-04-20T12:16:39.467Z,26.60
2019-04-20T12:19:08.619Z,26.60
2019-04-20T12:21:36.907Z,26.60
2019-04-20T12:24:04.946Z,26.90
2019-04-20T12:26:33.047Z,27.00
2019-04-20T12:29:01.436Z,26.90
2019-04-20T12:31:29.550Z,26.90
2019-04-20T12:33:58.104Z,27.00
2019-04-20T12:36:26.098Z,27.10
2019-04-20T12:38:55.024Z,27.10
2019-04-20T12:41:35.101Z,27.30
2019-04-20T12:43:53.823Z,27.50
2019-04-20T12:46:23.447Z,27.70
2019-04-20T12:48:51.548Z,27.60
2019-04-20T12:51:19.700Z,27.70
2019-04-20T12:53:48.757Z,27.80
2019-04-20T12:56:16.963Z,27.70
2019-04-20T12:58:45.163Z,27.60
2019-04-20T13:01:14.335Z,27.20
2019-04-20T13:03:43.478Z,27.20
2019-04-20T13:06:12.136Z,27.20
2019-04-20T13:08:45.103Z,27.20
2019-04-20T13:11:20.410Z,26.80
2019-04-20T13:14:22.366Z,26.60
2019-04-20T13:16:52.325Z,26.90
2019-04-20T13:19:21.557Z,27.20
2019-04-20T13:21:49.461Z,27.00
2019-04-20T13:24:17.277Z,26.80
2019-04-20T13:26:45.118Z,26.90
2019-04-20T13:29:12.965Z,27.00
2019-04-20T13:31:41.864Z,27.20
2019-04-20T13:34:09.836Z,27.10
2019-04-20T13:36:38.082Z,27.40
2019-04-20T13:39:08.098Z,27.50
2019-04-20T13:41:36.058Z,27.60
2019-04-20T13:44:04.933Z,27.50
2019-04-20T13:46:33.622Z,27.50
2019-04-20T13:49:01.271Z,27.50
2019-04-20T13:51:29.048Z,27.40
2019-04-20T13:53:57.292Z,27.30
2019-04-20T13:56:25.977Z,27.50
2019-04-20T13:59:01.819Z,27.60
2019-04-20T14:02:02.826Z,27.50
2019-04-20T14:04:36.786Z,27.50
2019-04-20T14:07:06.344Z,27.60
2019-04-20T14:09:35.393Z,27.50
2019-04-20T14:12:14.080Z,27.30
2019-04-20T14:14:33.407Z,27.40
2019-04-20T14:17:01.312Z,27.50
2019-04-20T14:19:29.381Z,27.60
2019-04-20T14:21:57.265Z,27.70
2019-04-20T14:24:25.059Z,27.40
2019-04-20T14:26:52.961Z,27.40
2019-04-20T14:29:20.920Z,27.50
2019-04-20T14:31:49.984Z,27.70
2019-04-20T14:34:17.835Z,28.00
2019-04-20T14:36:46.774Z,28.10
2019-04-20T14:39:16.218Z,28.10
2019-04-20T14:41:44.444Z,28.10
2019-04-20T14:44:12.468Z,28.30
2019-04-20T14:46:40.262Z,28.40
2019-04-20T14:49:08.137Z,28.40
2019-04-20T14:51:35.898Z,28.30
2019-04-20T14:54:03.707Z,28.20
2019-04-20T14:56:31.665Z,28.00
2019-04-20T14:59:11.470Z,27.80
2019-04-20T15:01:50.431Z,27.70
2019-04-20T15:04:23.214Z,27.90
2019-04-20T15:06:50.880Z,27.80
2019-04-20T15:09:18.925Z,27.80
2019-04-20T15:11:46.783Z,27.80
2019-04-20T15:14:14.647Z,27.90
2019-04-20T15:16:42.735Z,27.90
2019-04-20T15:19:27.549Z,27.90
2019-04-20T15:21:59.752Z,27.80
2019-04-20T15:24:29.416Z,27.80
2019-04-20T15:26:58.370Z,27.90
2019-04-20T15:29:26.390Z,28.00
2019-04-20T15:31:54.344Z,28.00
2019-04-20T15:34:22.142Z,28.10
2019-04-20T15:36:49.948Z,27.90
2019-04-20T15:39:18.711Z,27.90
2019-04-20T15:41:47.294Z,27.90
2019-04-20T15:44:15.389Z,27.90
2019-04-20T15:46:43.496Z,27.80
2019-04-20T15:49:11.617Z,27.90
2019-04-20T15:51:39.765Z,27.90
2019-04-20T15:54:07.726Z,27.90
2019-04-20T15:56:35.597Z,27.90
2019-04-20T15:59:04.338Z,27.90
2019-04-20T16:01:38.519Z,27.80
2019-04-20T16:04:24.324Z,27.90
2019-04-20T16:06:45.244Z,27.90
2019-04-20T16:09:14.225Z,27.80
2019-04-20T16:11:44.750Z,27.70
2019-04-20T16:14:13.605Z,27.50
2019-04-20T16:16:42.498Z,27.50
2019-04-20T16:19:23.268Z,27.70
2019-04-20T16:21:41.518Z,27.50
2019-04-20T16:24:15.229Z,27.50
2019-04-20T16:27:03.010Z,27.60
2019-04-20T16:29:33.560Z,27.70
2019-04-20T16:32:02.543Z,27.60
2019-04-20T16:34:31.710Z,27.50
2019-04-20T16:36:59.936Z,27.40
2019-04-20T16:39:28.358Z,27.30
2019-04-20T16:41:56.249Z,27.30
2019-04-20T16:44:25.143Z,27.20
2019-04-20T16:46:54.202Z,27.30
2019-04-20T16:49:23.363Z,27.30
2019-04-20T16:51:52.591Z,27.50
2019-04-20T16:54:21.806Z,27.40
2019-04-20T16:56:50.773Z,27.30
2019-04-20T16:59:19.631Z,27.30
2019-04-20T17:01:48.543Z,27.20
2019-04-20T17:04:21.844Z,27.10
2019-04-20T17:07:05.953Z,27.10
2019-04-20T17:09:35.676Z,27.20
2019-04-20T17:12:03.866Z,27.20
2019-04-20T17:14:31.892Z,27.00
2019-04-20T17:17:00.033Z,26.90
2019-04-20T17:19:28.295Z,26.70
2019-04-20T17:21:57.296Z,26.60
2019-04-20T17:24:25.196Z,26.40
2019-04-20T17:27:03.357Z,26.20
2019-04-20T17:29:41.180Z,26.00
2019-04-20T17:32:21.182Z,25.70
2019-04-20T17:35:09.192Z,25.50
2019-04-20T17:37:24.587Z,25.10
2019-04-20T17:40:12.865Z,24.80
2019-04-20T17:42:38.504Z,24.70
2019-04-20T17:45:02.182Z,24.40
2019-04-20T17:47:44.872Z,24.30
2019-04-20T17:50:12.837Z,24.20
2019-04-20T17:52:41.529Z,24.00
2019-04-20T17:54:55.856Z,23.90
2019-04-20T17:57:25.610Z,23.80
2019-04-20T18:00:01.654Z,23.60
2019-04-20T18:02:53.610Z,23.50
2019-04-20T18:05:26.898Z,23.30
2019-04-20T18:08:04.175Z,23.10
2019-04-20T18:10:30.337Z,22.90
2019-04-20T18:12:51.945Z,22.80
2019-04-20T18:15:36.327Z,22.70
2019-04-20T18:18:24.503Z,22.50
2019-04-20T18:20:56.908Z,22.40
2019-04-20T18:23:33.512Z,22.30
2019-04-20T18:26:17.291Z,22.20
2019-04-20T18:28:47.056Z,22.10
2019-04-20T18:31:27.486Z,21.90
2019-04-20T18:34:06.989Z,21.80
2019-04-20T18:36:37.894Z,21.70
2019-04-20T18:39:07.943Z,21.80
2019-04-20T18:41:41.829Z,21.70
2019-04-20T18:44:04.513Z,21.60
2019-04-20T18:46:56.921Z,21.60
2019-04-20T18:49:18.343Z,21.50
2019-04-20T18:51:33.214Z,21.50
2019-04-20T18:54:08.317Z,21.40
2019-04-20T18:56:38.299Z,21.30
2019-04-20T18:59:01.153Z,21.20
2019-04-20T19:01:34.173Z,21.20
2019-04-20T19:03:59.704Z,21.20
2019-04-20T19:06:27.792Z,21.30
2019-04-20T19:08:57.189Z,21.30
2019-04-20T19:11:27.049Z,21.30
2019-04-20T19:14:16.385Z,21.40
2019-04-20T19:16:55.701Z,21.40
2019-04-20T19:19:33.121Z,21.40
2019-04-20T19:21:56.184Z,21.30
2019-04-20T19:24:29.141Z,21.20
2019-04-20T19:26:57.448Z,21.20
2019-04-20T19:29:33.382Z,21.10
2019-04-20T19:32:11.605Z,21.10
2019-04-20T19:34:36.457Z,21.10
2019-04-20T19:37:04.104Z,21.00
2019-04-20T19:39:39.864Z,20.90
2019-04-20T19:42:02.933Z,20.90
2019-04-20T19:44:39.578Z,20.80
2019-04-20T19:47:11.381Z,20.60
2019-04-20T19:49:36.367Z,20.50
2019-04-20T19:52:25.190Z,20.50
2019-04-20T19:54:42.662Z,20.50
2019-04-20T19:57:08.105Z,20.40
2019-04-20T19:59:29.582Z,20.30
2019-04-20T20:01:51.603Z,20.30
2019-04-20T20:04:19.798Z,20.20
2019-04-20T20:06:54.240Z,20.00
2019-04-20T20:09:18.306Z,19.90
2019-04-20T20:11:48.081Z,19.80
2019-04-20T20:14:18.074Z,19.70
2019-04-20T20:17:02.704Z,19.60
2019-04-20T20:19:32.889Z,19.60
2019-04-20T20:21:59.016Z,19.50
2019-04-20T20:24:17.415Z,19.40
2019-04-20T20:26:52.689Z,19.30
2019-04-20T20:29:26.196Z,19.20
2019-04-20T20:32:01.716Z,19.10
2019-04-20T20:34:24.409Z,19.10
2019-04-20T20:36:53.715Z,19.10
2019-04-20T20:39:21.341Z,19.00
2019-04-20T20:41:56.318Z,18.90
2019-04-20T20:44:26.542Z,18.80
2019-04-20T20:46:55.342Z,18.70
2019-04-20T20:49:32.772Z,18.60
2019-04-20T20:52:02.870Z,18.50
2019-04-20T20:54:28.326Z,18.50
2019-04-20T20:56:49.767Z,18.30
2019-04-20T20:59:26.919Z,18.30
2019-04-20T21:01:50.155Z,18.20
2019-04-20T21:04:11.967Z,18.10
2019-04-20T21:06:40.342Z,18.10
2019-04-20T21:09:08.228Z,18.10
2019-04-20T21:11:36.469Z,17.90
2019-04-20T21:14:04.679Z,17.80
2019-04-20T21:16:36.771Z,17.80
2019-04-20T21:19:17.188Z,17.80
2019-04-20T21:21:44.420Z,17.80
2019-04-20T21:24:14.513Z,17.80
2019-04-20T21:26:44.019Z,17.70
2019-04-20T21:29:10.207Z,17.60
2019-04-20T21:31:38.540Z,17.50
2019-04-20T21:34:12.319Z,17.50
2019-04-20T21:36:36.870Z,17.40
2019-04-20T21:39:08.714Z,17.30
2019-04-20T21:41:40.787Z,17.30
2019-04-20T21:44:13.010Z,17.20
2019-04-20T21:46:39.790Z,17.10
2019-04-20T21:49:18.413Z,17.00
2019-04-20T21:51:44.634Z,17.00
2019-04-20T21:54:05.530Z,17.00
2019-04-20T21:56:39.276Z,17.00
2019-04-20T21:59:06.429Z,16.90
2019-04-20T22:01:38.950Z,16.90
2019-04-20T22:04:03.720Z,16.90
2019-04-20T22:06:38.241Z,16.80
2019-04-20T22:09:12.598Z,16.70
2019-04-20T22:11:41.995Z,16.50
2019-04-20T22:14:17.304Z,16.50
2019-04-20T22:16:46.091Z,16.40
2019-04-20T22:19:24.812Z,16.30
2019-04-20T22:21:53.141Z,16.30
2019-04-20T22:24:27.124Z,16.40
2019-04-20T22:26:50.349Z,16.40
2019-04-20T22:29:08.237Z,16.30
2019-04-20T22:31:36.137Z,16.30
2019-04-20T22:34:10.347Z,16.20
2019-04-20T22:36:39.847Z,16.10
2019-04-20T22:39:13.798Z,15.90
2019-04-20T22:42:00.151Z,15.80
2019-04-20T22:44:26.690Z,15.80
2019-04-20T22:46:54.176Z,15.80
2019-04-20T22:49:38.864Z,15.90
2019-04-20T22:52:00.677Z,15.80
2019-04-20T22:54:36.423Z,15.80
2019-04-20T22:57:03.081Z,15.80
2019-04-20T22:59:25.072Z,15.70
2019-04-20T23:01:55.232Z,15.60
2019-04-20T23:04:21.187Z,15.50
2019-04-20T23:06:50.620Z,15.50
2019-04-20T23:09:18.833Z,15.50
2019-04-20T23:11:47.314Z,15.50
2019-04-20T23:14:16.351Z,15.40
2019-04-20T23:16:49.174Z,15.20
2019-04-20T23:19:14.231Z,15.00
2019-04-20T23:21:49.619Z,14.90
2019-04-20T23:24:13.589Z,14.80
2019-04-20T23:26:44.300Z,14.70
2019-04-20T23:29:11.338Z,14.80
2019-04-20T23:31:46.139Z,14.70
2019-04-20T23:34:14.360Z,14.80
2019-04-20T23:36:42.490Z,14.80
2019-04-20T23:39:08.666Z,14.80
2019-04-20T23:41:37.694Z,14.80
2019-04-20T23:44:18.889Z,14.70
2019-04-20T23:47:08.456Z,14.70
2019-04-20T23:49:54.245Z,14.50
2019-04-20T23:52:30.650Z,14.50
2019-04-20T23:54:37.228Z,14.50
2019-04-20T23:57:04.307Z,14.30
2019-04-20T23:59:39.046Z,14.30
